Time;durP1;ratioP1;P1;durP2;ratioP2;P2;SDS_P1;SDS_P2;PMS_P1;PMS_P2;Temp;Humidity;BMP_temperature;BMP_pressure;BME280_temperature;BME280_humidity;BME280_pressure;Samples;Min_cycle;Max_cycle;Signal;HPM_P1;HPM_P2
2022/07/25 00:02:13;;;;;;;;;;;;;;;22.66;100.00;148416.19;5071568;28;19920;-76
2022/07/25 00:04:46;;;;;;;;;;;;;;;22.65;100.00;148413.59;5105542;28;19946;-77
2022/07/25 00:07:12;;;;;;;;;;;;;;;22.62;100.00;148404.63;5071571;28;19916;-80
2022/07/25 00:09:37;;;;;;;;;;;;;;;22.51;100.00;148379.00;5080986;28;20252;-76
2022/07/25 00:12:02;;;;;;;;;;;;;;;22.45;100.00;148363.63;5091781;28;19923;-79
2022/07/25 00:14:28;;;;;;;;;;;;;;;22.29;100.00;148323.75;5075786;28;19976;-78
2022/07/25 00:16:53;;;;;;;;;;;;;;;22.39;100.00;148349.47;5088158;28;19920;-76
2022/07/25 00:19:18;;;;;;;;;;;;;;;22.36;100.00;148340.53;5071789;28;19920;-76
2022/07/25 00:21:44;;;;;;;;;;;;;;;22.31;100.00;148328.97;5072187;28;19950;-80
2022/07/25 00:24:13;;;;;;;;;;;;;;;22.37;100.00;148343.06;5078081;28;19947;-77
2022/07/25 00:26:38;;;;;;;;;;;;;;;22.36;100.00;148340.53;5076336;28;19927;-77
2022/07/25 00:29:04;;;;;;;;;;;;;;;22.33;100.00;148332.81;5070978;28;20272;-79
2022/07/25 00:31:29;;;;;;;;;;;;;;;22.28;100.00;148319.91;5072775;28;19921;-78
2022/07/25 00:33:54;;;;;;;;;;;;;;;22.16;100.00;148290.44;5053664;28;19959;-77
2022/07/25 00:36:19;;;;;;;;;;;;;;;22.10;100.00;148276.31;5080841;28;20019;-77
2022/07/25 00:38:45;;;;;;;;;;;;;;;21.79;100.00;148199.38;5085692;28;19920;-79
2022/07/25 00:41:10;;;;;;;;;;;;;;;21.81;100.00;148204.53;5077609;28;20409;-77
2022/07/25 00:43:35;;;;;;;;;;;;;;;21.70;100.00;148176.28;5074853;28;20015;-77
2022/07/25 00:46:01;;;;;;;;;;;;;;;21.66;100.00;148166.06;5081495;28;19920;-76
2022/07/25 00:48:26;;;;;;;;;;;;;;;21.63;100.00;148158.34;5096984;28;19920;-76
2022/07/25 00:50:52;;;;;;;;;;;;;;;21.79;100.00;148199.38;5095206;28;20014;-76
2022/07/25 00:53:25;;;;;;;;;;;;;;;21.83;100.00;148209.63;5096317;28;20349;-76
2022/07/25 00:55:51;;;;;;;;;;;;;;;21.86;100.00;148217.34;5095389;28;20011;-78
2022/07/25 00:58:17;;;;;;;;;;;;;;;21.93;100.00;148234.00;5095151;28;20011;-77
2022/07/25 01:00:43;;;;;;;;;;;;;;;21.88;100.00;148222.44;5092121;28;19920;-77
2022/07/25 01:03:09;;;;;;;;;;;;;;;21.90;100.00;148226.28;5090622;28;19916;-76
2022/07/25 01:05:34;;;;;;;;;;;;;;;21.79;100.00;148199.38;5079364;28;19924;-76
2022/07/25 01:08:00;;;;;;;;;;;;;;;21.70;100.00;148176.28;5076362;28;19924;-79
2022/07/25 01:10:25;;;;;;;;;;;;;;;21.78;100.00;148195.50;5090900;28;19979;-77
2022/07/25 01:12:54;;;;;;;;;;;;;;;21.80;100.00;148201.94;5092099;28;19916;-79
2022/07/25 01:15:22;;;;;;;;;;;;;;;21.83;100.00;148209.63;5089436;28;19931;-76
2022/07/25 01:17:48;;;;;;;;;;;;;;;21.67;100.00;123264.63;5094422;28;19912;-78
2022/07/25 01:20:17;;;;;;;;;;;;;;;21.76;100.00;99551.78;5083985;28;19931;-76
2022/07/25 01:22:43;;;;;;;;;;;;;;;21.74;100.00;112256.06;5074722;28;19917;-76
2022/07/25 01:25:09;;;;;;;;;;;;;;;21.68;100.00;116031.56;5077475;28;20323;-76
2022/07/25 01:27:35;;;;;;;;;;;;;;;21.72;100.00;116727.34;5080606;28;19927;-77
2022/07/25 01:30:01;;;;;;;;;;;;;;;21.50;100.00;98137.00;5074235;28;20011;-78
2022/07/25 01:32:27;;;;;;;;;;;;;;;21.41;100.00;86148.28;5098491;28;20388;-79
2022/07/25 01:34:52;;;;;;;;;;;;;;;21.43;100.00;85808.97;5074398;28;19913;-76
2022/07/25 01:37:17;;;;;;;;;;;;;;;21.45;100.00;97786.56;5074437;28;20506;-75
2022/07/25 01:39:42;;;;;;;;;;;;;;;21.41;100.00;112537.97;5073897;28;20003;-80
2022/07/25 01:42:08;;;;;;;;;;;;;;;21.27;100.00;105641.91;5071327;28;19931;-78
2022/07/25 01:44:34;;;;;;;;;;;;;;;21.40;100.00;101890.19;5054032;28;20327;-76
2022/07/25 01:47:00;;;;;;;;;;;;;;;21.33;100.00;106682.81;5070931;28;20403;-78
2022/07/25 01:49:25;;;;;;;;;;;;;;;21.39;100.00;105320.00;5070827;28;19956;-78
2022/07/25 01:51:51;;;;;;;;;;;;;;;21.40;100.00;115631.66;5087623;28;20372;-75
2022/07/25 01:54:18;;;;;;;;;;;;;;;21.39;100.00;124930.56;5053539;28;19917;-77
2022/07/25 01:56:44;;;;;;;;;;;;;;;21.45;100.00;126668.53;5054032;28;19917;-75
2022/07/25 01:59:09;;;;;;;;;;;;;;;21.48;100.00;124605.25;5088402;28;19920;-75
2022/07/25 02:01:36;;;;;;;;;;;;;;;21.41;100.00;123899.31;5070717;28;20426;-76
2022/07/25 02:04:02;;;;;;;;;;;;;;;21.22;100.00;108377.81;5072969;28;19997;-77
2022/07/25 02:06:27;;;;;;;;;;;;;;;21.22;100.00;104945.44;5093755;28;20042;-79
2022/07/25 02:08:52;;;;;;;;;;;;;;;21.18;100.00;97740.84;5076813;28;19916;-75
2022/07/25 02:11:19;;;;;;;;;;;;;;;21.27;100.00;95016.31;5107728;28;19916;-77
2022/07/25 02:13:44;;;;;;;;;;;;;;;21.27;100.00;90569.09;5073870;28;20071;-76
2022/07/25 02:16:10;;;;;;;;;;;;;;;21.22;100.00;70440.78;5094189;28;19959;-77
2022/07/25 02:18:36;;;;;;;;;;;;;;;21.17;100.00;66356.03;5094160;28;20340;-80
2022/07/25 02:21:01;;;;;;;;;;;;;;;21.06;100.00;66003.03;5072931;28;20293;-77
2022/07/25 02:23:27;;;;;;;;;;;;;;;21.03;100.00;62942.81;5073576;28;19927;-77
2022/07/25 02:25:52;;;;;;;;;;;;;;;21.04;100.00;66000.63;5074369;28;19912;-79
2022/07/25 02:28:18;;;;;;;;;;;;;;;21.13;100.00;71110.91;5072953;28;19917;-78
2022/07/25 02:30:43;;;;;;;;;;;;;;;21.14;100.00;71451.72;5073592;28;19928;-77
2022/07/25 02:33:10;;;;;;;;;;;;;;;21.01;100.00;49387.53;5086455;28;19920;-76
2022/07/25 02:35:36;;;;;;;;;;;;;;;21.00;100.00;42626.88;5089083;28;19920;-77
2022/07/25 02:38:01;;;;;;;;;;;;;;;20.90;100.00;37221.25;5074416;28;19916;-79
2022/07/25 02:40:26;;;;;;;;;;;;;;;20.88;100.00;30818.88;5090308;28;20262;-78
2022/07/25 02:42:53;;;;;;;;;;;;;;;20.86;100.00;30144.81;5075180;28;19924;-76
2022/07/25 02:45:18;;;;;;;;;;;;;;;21.01;100.00;32510.72;5073608;28;19912;-79
2022/07/25 02:47:45;;;;;;;;;;;;;;;20.97;100.00;43637.94;5072908;28;20003;-76
2022/07/25 02:50:10;;;;;;;;;;;;;;;20.98;100.00;47017.75;5072836;28;20003;-79
2022/07/25 02:52:44;;;;;;;;;;;;;;;21.03;100.00;53112.13;5078083;28;20427;-77
2022/07/25 02:55:10;;;;;;;;;;;;;;;21.02;100.00;55820.22;5105979;28;20011;-77
2022/07/25 02:57:35;;;;;;;;;;;;;;;21.09;100.00;59895.75;5074130;28;20352;-78
2022/07/25 03:00:00;;;;;;;;;;;;;;;21.15;100.00;62277.72;5072553;28;19959;-79
2022/07/25 03:02:26;;;;;;;;;;;;;;;21.21;100.00;65680.09;5078649;28;20007;-79
2022/07/25 03:04:51;;;;;;;;;;;;;;;21.22;100.00;66360.88;5089241;28;19916;-79
2022/07/25 03:07:17;;;;;;;;;;;;;;;21.07;100.00;39594.78;5073418;28;19921;-76
2022/07/25 03:09:42;;;;;;;;;;;;;;;21.04;100.00;30155.56;5088260;28;19920;-78
2022/07/25 03:12:07;;;;;;;;;;;;;;;21.09;100.00;29148.81;5082391;28;19926;-79
2022/07/25 03:14:34;;;;;;;;;;;;;;;21.08;100.00;31504.53;5078668;28;19921;-80
2022/07/25 03:17:00;;;;;;;;;;;;;;;21.10;100.00;31505.81;5085151;28;19924;-76
2022/07/25 03:19:25;;;;;;;;;;;;;;;21.10;100.00;29822.63;5071136;28;19940;-76
2022/07/25 03:21:50;;;;;;;;;;;;;;;21.06;100.00;29147.03;5107375;28;19924;-73
2022/07/25 03:24:18;;;;;;;;;;;;;;;20.97;100.00;22753.59;5086141;28;19923;-76
2022/07/25 03:26:44;;;;;;;;;;;;;;;20.91;100.00;17044.16;5072574;28;19955;-77
2022/07/25 03:29:09;;;;;;;;;;;;;;;20.89;100.00;10340.63;5082682;28;19963;-76
2022/07/25 03:31:35;;;;;;;;;;;;;;;20.80;100.00;7326.31;5078344;28;19983;-76
2022/07/25 03:34:00;;;;;;;;;;;;;;;20.71;100.00;4983.44;5069533;28;19987;-76
2022/07/25 03:36:25;;;;;;;;;;;;;;;20.77;100.00;641.06;5090967;28;19920;-76
2022/07/25 03:38:51;;;;;;;;;;;;;;;20.91;100.00;-693.00;5084878;28;19923;-75
2022/07/25 03:41:16;;;;;;;;;;;;;;;20.93;100.00;-1026.59;5089639;28;19927;-75
2022/07/25 03:43:43;;;;;;;;;;;;;;;20.86;100.00;-6031.69;5077513;28;19926;-77
2022/07/25 03:46:08;;;;;;;;;;;;;;;20.89;100.00;-9364.34;5108859;28;19951;-75
2022/07/25 03:48:34;;;;;;;;;;;;;;;20.96;100.00;-10030.81;5076185;28;19935;-76
2022/07/25 03:50:59;;;;;;;;;;;;;;;21.02;100.00;-9697.84;5081642;28;20215;-77
2022/07/25 03:53:25;;;;;;;;;;;;;;;21.02;100.00;-8698.22;5068272;28;20377;-76
2022/07/25 03:55:51;;;;;;;;;;;;;;;21.07;100.00;-6031.13;5052842;28;19989;-80
2022/07/25 03:58:16;;;;;;;;;;;;;;;21.04;100.00;-7031.56;5087304;28;20376;-76
2022/07/25 04:00:41;;;;;;;;;;;;;;;21.05;100.00;-7364.94;5077075;28;19969;-76
2022/07/25 04:03:08;;;;;;;;;;;;;;;21.02;100.00;-7364.97;5071696;28;19916;-77
2022/07/25 04:05:33;;;;;;;;;;;;;;;21.00;100.00;-6698.19;5087528;28;19972;-79
2022/07/25 04:07:59;;;;;;;;;;;;;;;21.04;100.00;-5697.69;5078815;28;19923;-78
2022/07/25 04:10:24;;;;;;;;;;;;;;;21.06;100.00;-5364.06;5092118;28;20603;-75
2022/07/25 04:12:50;;;;;;;;;;;;;;;21.09;100.00;-4029.41;5073939;28;19946;-76
2022/07/25 04:15:16;;;;;;;;;;;;;;;21.07;100.00;-1025.13;5088964;28;19924;-78
2022/07/25 04:17:41;;;;;;;;;;;;;;;21.14;100.00;2651.25;5064344;28;19912;-81
2022/07/25 04:20:06;;;;;;;;;;;;;;;21.17;100.00;10348.69;5071251;28;19967;-79
2022/07/25 04:22:34;;;;;;;;;;;;;;;21.11;100.00;18730.03;5071183;28;20007;-80
2022/07/25 04:24:59;;;;;;;;;;;;;;;21.10;100.00;23095.56;5071564;28;19970;-77
2022/07/25 04:27:24;;;;;;;;;;;;;;;21.14;100.00;27468.91;5071769;28;19921;-76
2022/07/25 04:29:50;;;;;;;;;;;;;;;21.12;100.00;32517.91;5065588;28;19935;-75
2022/07/25 04:32:32;;;;;;;;;;;;;;;21.13;100.00;32181.34;5088005;28;20379;-75
2022/07/25 04:34:57;;;;;;;;;;;;;;;21.12;100.00;19401.88;5082399;28;19989;-77
2022/07/25 04:37:23;;;;;;;;;;;;;;;21.17;100.00;14370.59;5071618;28;20322;-78
2022/07/25 04:39:48;;;;;;;;;;;;;;;21.19;100.00;4658.41;5087550;28;19925;-77
2022/07/25 04:42:13;;;;;;;;;;;;;;;21.19;100.00;12024.63;5089227;28;19931;-76
2022/07/25 04:44:42;;;;;;;;;;;;;;;21.19;100.00;18397.31;5069720;28;19933;-77
2022/07/25 04:47:07;;;;;;;;;;;;;;;21.27;100.00;46028.66;5090877;28;19923;-76
2022/07/25 04:49:32;;;;;;;;;;;;;;;21.43;100.00;77619.25;5083487;28;19916;-76
2022/07/25 04:51:58;;;;;;;;;;;;;;;21.57;100.00;132910.75;5070997;28;20353;-76
2022/07/25 04:54:25;;;;;;;;;;;;;;;21.68;100.00;148171.16;5077205;28;19920;-76
2022/07/25 04:56:50;;;;;;;;;;;;;;;21.82;100.00;148207.06;5077324;28;19928;-76
2022/07/25 04:59:15;;;;;;;;;;;;;;;21.94;100.00;148235.25;5091081;28;19921;-80
2022/07/25 05:01:41;;;;;;;;;;;;;;;21.97;100.00;148242.94;5073520;28;20019;-76
2022/07/25 05:04:10;;;;;;;;;;;;;;;22.02;100.00;148255.81;5086144;28;19985;-79
2022/07/25 05:06:35;;;;;;;;;;;;;;;21.98;100.00;148246.81;5105061;28;19916;-80
2022/07/25 05:09:00;;;;;;;;;;;;;;;21.93;100.00;148232.72;5070807;28;19966;-76
2022/07/25 05:11:26;;;;;;;;;;;;;;;21.97;100.00;148242.94;5072282;28;20377;-78
2022/07/25 05:13:52;;;;;;;;;;;;;;;22.11;100.00;148278.91;5086402;28;19916;-80
2022/07/25 05:16:17;;;;;;;;;;;;;;;22.02;100.00;148255.81;5082972;28;20364;-80
2022/07/25 05:18:42;;;;;;;;;;;;;;;22.13;100.00;148284.00;5091678;28;19938;-75
2022/07/25 05:21:11;;;;;;;;;;;;;;;22.17;100.00;148294.28;5089936;28;19916;-80
2022/07/25 05:23:36;;;;;;;;;;;;;;;22.20;100.00;148302.00;5077797;28;19924;-81
2022/07/25 05:26:02;;;;;;;;;;;;;;;22.17;100.00;148294.28;5073515;28;19916;-80
2022/07/25 05:28:27;;;;;;;;;;;;;;;22.16;100.00;148290.44;5071665;28;20383;-79
2022/07/25 05:30:52;;;;;;;;;;;;;;;22.23;100.00;148308.38;5091097;28;19927;-79
2022/07/25 05:33:21;;;;;;;;;;;;;;;22.23;100.00;148308.38;5092526;28;20363;-81
2022/07/25 05:35:46;;;;;;;;;;;;;;;22.26;100.00;148316.06;5091485;28;20374;-83
2022/07/25 05:38:11;;;;;;;;;;;;;;;22.31;100.00;148328.97;5095486;28;20003;-79
2022/07/25 05:40:38;;;;;;;;;;;;;;;22.37;100.00;148343.06;5083520;28;20276;-82
2022/07/25 05:43:04;;;;;;;;;;;;;;;22.47;100.00;148368.72;5074447;28;19916;-78
2022/07/25 05:45:30;;;;;;;;;;;;;;;22.56;100.00;148391.81;5091070;28;19939;-79
2022/07/25 05:47:55;;;;;;;;;;;;;;;22.63;100.00;148407.22;5095150;28;19916;-79
2022/07/25 05:50:20;;;;;;;;;;;;;;;22.85;100.00;148462.38;5060247;28;20426;-79
2022/07/25 05:52:45;;;;;;;;;;;;;;;22.80;100.00;148450.84;5101989;28;19920;-81
2022/07/25 05:55:12;;;;;;;;;;;;;;;22.64;100.00;148409.75;5073440;28;20368;-80
2022/07/25 05:57:37;;;;;;;;;;;;;;;22.73;100.00;148434.16;5086905;28;19924;-79
2022/07/25 06:00:04;;;;;;;;;;;;;;;22.77;100.00;148443.13;5074670;28;19966;-80
2022/07/25 06:02:30;;;;;;;;;;;;;;;22.63;100.00;148407.22;5073400;28;20015;-75
2022/07/25 06:04:57;;;;;;;;;;;;;;;22.58;100.00;148395.66;5071917;28;20070;-75
2022/07/25 06:07:22;;;;;;;;;;;;;;;22.65;100.00;148413.59;5072496;28;20018;-76
2022/07/25 06:09:48;;;;;;;;;;;;;;;22.72;100.00;148430.31;5072708;28;20007;-74
2022/07/25 06:12:13;;;;;;;;;;;;;;;22.80;100.00;148450.84;5072802;28;20293;-75
2022/07/25 06:14:44;;;;;;;;;;;;;;;22.73;100.00;148434.16;5072965;28;19917;-78
2022/07/25 06:17:10;;;;;;;;;;;;;;;22.85;100.00;148463.66;5072309;28;19916;-74
2022/07/25 06:19:35;;;;;;;;;;;;;;;22.78;100.00;148445.72;5072204;28;19924;-73
2022/07/25 06:22:00;;;;;;;;;;;;;;;22.50;100.00;148376.44;5089643;28;20372;-78
2022/07/25 06:24:27;;;;;;;;;;;;;;;22.40;100.00;148350.75;5072781;28;20010;-76
2022/07/25 06:26:52;;;;;;;;;;;;;;;22.36;100.00;148341.78;5072633;28;19921;-74
2022/07/25 06:29:17;;;;;;;;;;;;;;;22.49;100.00;148373.84;5088736;28;19924;-76
2022/07/25 06:31:42;;;;;;;;;;;;;;;22.53;100.00;148384.13;5106210;28;19966;-77
2022/07/25 06:34:09;;;;;;;;;;;;;;;22.39;100.00;148349.47;5071732;28;20443;-74
2022/07/25 06:36:34;;;;;;;;;;;;;;;22.24;100.00;140681.47;5072846;28;19916;-77
2022/07/25 06:38:59;;;;;;;;;;;;;;;22.23;100.00;115449.97;5072376;28;19926;-76
2022/07/25 06:41:25;;;;;;;;;;;;;;;22.09;100.00;107850.94;5072011;28;19916;-79
2022/07/25 06:43:52;;;;;;;;;;;;;;;21.97;100.00;91363.88;5072182;28;19924;-77
2022/07/25 06:46:17;;;;;;;;;;;;;;;21.97;100.00;87599.00;5088291;28;19952;-78
2022/07/25 06:48:42;;;;;;;;;;;;;;;21.87;100.00;78020.31;5105837;28;20407;-77
2022/07/25 06:51:08;;;;;;;;;;;;;;;21.88;100.00;65759.09;5106065;28;19962;-80
2022/07/25 06:53:34;;;;;;;;;;;;;;;21.94;100.00;62365.00;5072382;28;20599;-80
2022/07/25 06:55:59;;;;;;;;;;;;;;;21.98;100.00;60330.81;5071958;28;19916;-79
2022/07/25 06:58:24;;;;;;;;;;;;;;;22.08;100.00;64760.69;5072367;28;20267;-80
2022/07/25 07:00:50;;;;;;;;;;;;;;;22.10;100.00;64763.66;5072980;28;19990;-77
2022/07/25 07:03:15;;;;;;;;;;;;;;;22.30;100.00;67509.13;5071861;28;19916;-81
2022/07/25 07:05:41;;;;;;;;;;;;;;;22.30;100.00;74325.50;5072781;28;19916;-80
2022/07/25 07:08:08;;;;;;;;;;;;;;;22.42;100.00;79119.72;5073217;28;19917;-77
2022/07/25 07:10:34;;;;;;;;;;;;;;;22.37;100.00;80821.34;5072139;28;19970;-81
2022/07/25 07:13:07;;;;;;;;;;;;;;;22.46;100.00;79125.38;5072038;28;19920;-80
2022/07/25 07:15:33;;;;;;;;;;;;;;;22.27;100.00;75002.97;5072173;28;19920;-77
2022/07/25 07:17:59;;;;;;;;;;;;;;;22.04;100.00;68840.13;5072053;28;19938;-79
2022/07/25 07:20:24;;;;;;;;;;;;;;;22.09;100.00;60682.22;5089694;28;19920;-77
2022/07/25 07:22:51;;;;;;;;;;;;;;;21.92;100.00;57947.13;5071912;28;19923;-79
2022/07/25 07:25:18;;;;;;;;;;;;;;;21.99;100.00;51848.56;5106415;28;19917;-78
2022/07/25 07:27:43;;;;;;;;;;;;;;;21.98;100.00;41352.56;5073216;28;19927;-79
2022/07/25 07:30:09;;;;;;;;;;;;;;;22.24;100.00;37316.31;5072065;28;19921;-78
2022/07/25 07:32:34;;;;;;;;;;;;;;;22.25;100.00;44418.97;5106534;28;19917;-81
2022/07/25 07:34:59;;;;;;;;;;;;;;;22.68;100.00;56667.50;5082422;28;19927;-81
2022/07/25 07:37:26;;;;;;;;;;;;;;;22.91;100.00;66559.75;5081668;28;19920;-81
2022/07/25 07:39:52;;;;;;;;;;;;;;;22.97;100.00;68270.63;5072581;28;19916;-81
2022/07/25 07:42:17;;;;;;;;;;;;;;;22.71;100.00;62110.44;5072339;28;20007;-80
2022/07/25 07:44:42;;;;;;;;;;;;;;;22.53;100.00;55973.00;5071814;28;19917;-78
2022/07/25 07:47:07;;;;;;;;;;;;;;;22.51;100.00;52576.16;5077954;28;19927;-77
2022/07/25 07:49:33;;;;;;;;;;;;;;;22.81;100.00;61101.00;5090923;28;19979;-76
2022/07/25 07:51:58;;;;;;;;;;;;;;;22.88;100.00;66556.13;5089223;28;19923;-77
2022/07/25 07:57:07;;;;;;;;;;;;;;;22.72;100.00;63473.41;5092160;28;20392;-76
2022/07/25 07:59:32;;;;;;;;;;;;;;;22.59;100.00;59037.41;5090642;28;19917;-78
2022/07/25 08:01:58;;;;;;;;;;;;;;;23.10;100.00;58410.88;5090295;28;19997;-77
2022/07/25 08:04:24;;;;;;;;;;;;;;;23.22;100.00;84362.63;5086880;28;20035;-78
2022/07/25 08:06:49;;;;;;;;;;;;;;;23.35;100.00;96730.88;5070862;28;19924;-78
2022/07/25 08:09:15;;;;;;;;;;;;;;;23.91;100.00;130315.38;5076120;28;19924;-78
2022/07/25 08:11:40;;;;;;;;;;;;;;;23.70;100.00;148675.50;5106756;28;19920;-79
2022/07/25 08:14:06;;;;;;;;;;;;;;;23.96;100.00;148739.78;5075154;28;19921;-77
2022/07/25 08:16:32;;;;;;;;;;;;;;;24.30;100.00;148824.50;5073984;28;19912;-80
2022/07/25 08:18:57;;;;;;;;;;;;;;;24.50;100.00;148874.59;5072308;28;19954;-79
2022/07/25 08:21:22;;;;;;;;;;;;;;;24.55;100.00;148887.47;5074950;28;20011;-80
2022/07/25 08:23:48;;;;;;;;;;;;;;;24.47;100.00;148868.22;5071923;28;19942;-78
2022/07/25 08:26:13;;;;;;;;;;;;;;;24.01;100.00;148752.59;5071411;28;20673;-78
2022/07/25 08:28:39;;;;;;;;;;;;;;;23.72;100.00;148680.63;5069993;28;20395;-76
2022/07/25 08:31:04;;;;;;;;;;;;;;;23.74;100.00;148684.47;5069644;28;20007;-75
2022/07/25 08:33:30;;;;;;;;;;;;;;;23.42;100.00;148606.19;5088578;28;19923;-78
2022/07/25 08:35:57;;;;;;;;;;;;;;;23.79;100.00;148697.34;5092139;28;19916;-78
2022/07/25 08:38:23;;;;;;;;;;;;;;;24.44;100.00;148860.50;5074418;28;20001;-78
2022/07/25 08:40:49;;;;;;;;;;;;;;;24.94;100.00;148985.16;5070302;28;19966;-79
2022/07/25 08:43:17;;;;;;;;;;;;;;;25.47;100.00;149117.56;5070903;28;19927;-77
2022/07/25 08:45:43;;;;;;;;;;;;;;;25.87;100.00;149216.53;5071021;28;19923;-78
2022/07/25 08:48:09;;;;;;;;;;;;;;;25.98;100.00;149244.91;5070253;28;19924;-75
2022/07/25 08:50:35;;;;;;;;;;;;;;;27.00;100.00;149499.59;5070753;28;19916;-74
2022/07/25 08:53:01;;;;;;;;;;;;;;;26.95;100.00;149486.75;5069780;28;20380;-80
2022/07/25 08:55:27;;;;;;;;;;;;;;;26.92;100.00;149480.28;5070799;28;19917;-78
2022/07/25 08:57:53;;;;;;;;;;;;;;;27.29;100.00;149571.66;5087876;28;19977;-80
2022/07/25 09:00:19;;;;;;;;;;;;;;;27.26;100.00;149563.94;5070212;28;19971;-75
2022/07/25 09:02:57;;;;;;;;;;;;;;;27.69;100.00;149672.13;5071109;28;20019;-79
2022/07/25 09:05:23;;;;;;;;;;;;;;;27.51;100.00;149627.06;5071663;28;20003;-79
2022/07/25 09:07:49;;;;;;;;;;;;;;;26.85;100.00;149462.31;5073807;28;20011;-79
2022/07/25 09:10:19;;;;;;;;;;;;;;;27.04;100.00;149509.91;5058288;28;19936;-80
2022/07/25 09:12:52;;;;;;;;;;;;;;;26.64;100.00;149410.78;5075321;28;19939;-79
2022/07/25 09:15:29;;;;;;;;;;;;;;;26.19;100.00;149297.59;5074803;28;19923;-80
2022/07/25 09:17:56;;;;;;;;;;;;;;;25.81;100.00;149202.44;5074856;28;19920;-79
2022/07/25 09:20:21;;;;;;;;;;;;;;;25.50;100.00;149124.03;5075545;28;20007;-79
2022/07/25 09:22:47;;;;;;;;;;;;;;;24.94;100.00;148983.84;5086532;28;19951;-79
2022/07/25 09:25:28;;;;;;;;;;;;;;;25.30;100.00;149073.88;5080352;28;19920;-79
2022/07/25 09:27:54;;;;;;;;;;;;;;;25.14;100.00;149035.28;5072773;28;20407;-75
2022/07/25 09:30:19;;;;;;;;;;;;;;;24.89;100.00;148972.28;5072080;28;19920;-74
2022/07/25 09:32:45;;;;;;;;;;;;;;;24.82;100.00;148955.59;5073068;28;19923;-76
2022/07/25 09:35:11;;;;;;;;;;;;;;;24.52;100.00;148879.78;5089296;28;19924;-75
2022/07/25 09:37:36;;;;;;;;;;;;;;;23.86;100.00;148715.34;5072486;28;19924;-74
2022/07/25 09:40:10;;;;;;;;;;;;;;;23.65;100.00;148663.94;5072721;28;19916;-75
2022/07/25 09:42:36;;;;;;;;;;;;;;;23.78;100.00;148694.75;5072255;28;19916;-74
2022/07/25 09:45:11;;;;;;;;;;;;;;;23.79;100.00;148697.34;5071877;28;20288;-73
2022/07/25 09:47:57;;;;;;;;;;;;;;;24.92;100.00;148980.00;5072967;28;19921;-73
2022/07/25 09:50:23;;;;;;;;;;;;;;;25.83;100.00;149207.56;5071702;28;20053;-74
2022/07/25 09:52:52;;;;;;;;;;;;;;;25.46;100.00;149115.00;5072561;28;19985;-74
2022/07/25 09:55:18;;;;;;;;;;;;;;;25.11;100.00;149027.56;5072466;28;19919;-76
2022/07/25 09:57:46;;;;;;;;;;;;;;;25.07;100.00;149017.28;5074175;28;19946;-74
2022/07/25 10:00:12;;;;;;;;;;;;;;;25.65;100.00;149162.53;5072604;28;19970;-75
2022/07/25 10:02:46;;;;;;;;;;;;;;;25.91;100.00;149226.84;5073181;28;20464;-74
2022/07/25 10:05:25;;;;;;;;;;;;;;;25.77;100.00;149193.41;5073002;28;20048;-75
2022/07/25 10:07:52;;;;;;;;;;;;;;;25.84;100.00;149210.13;5107381;28;20377;-75
2022/07/25 10:10:25;;;;;;;;;;;;;;;25.36;100.00;149090.56;5072323;28;20031;-79
2022/07/25 10:12:57;;;;;;;;;;;;;;;24.67;100.00;148918.34;5072706;28;19916;-75
2022/07/25 10:15:23;;;;;;;;;;;;;;;24.51;100.00;148878.44;5072919;28;19920;-74
2022/07/25 10:17:50;;;;;;;;;;;;;;;24.16;100.00;148789.81;5073309;28;19917;-77
2022/07/25 10:20:26;;;;;;;;;;;;;;;24.47;100.00;148866.88;5073024;28;19921;-76
2022/07/25 10:22:51;;;;;;;;;;;;;;;24.16;100.00;148789.81;5074575;28;19939;-76
2022/07/25 10:25:19;;;;;;;;;;;;;;;24.01;100.00;148753.88;5073196;28;20345;-76
2022/07/25 10:27:48;;;;;;;;;;;;;;;23.99;100.00;148748.75;5073693;28;19916;-78
2022/07/25 10:30:22;;;;;;;;;;;;;;;23.68;100.00;148670.38;5073159;28;19930;-80
2022/07/25 10:32:59;;;;;;;;;;;;;;;23.72;100.00;148680.63;5073970;28;19939;-80
2022/07/25 10:35:25;;;;;;;;;;;;;;;23.38;100.00;148595.88;5073432;28;19999;-79
2022/07/25 10:37:51;;;;;;;;;;;;;;;23.05;100.00;148513.69;5073810;28;19947;-78
2022/07/25 10:40:24;;;;;;;;;;;;;;;22.90;100.00;148476.50;5073114;28;19916;-80
2022/07/25 10:42:55;;;;;;;;;;;;;;;22.72;100.00;148431.59;5074077;28;19925;-76
2022/07/25 10:45:20;;;;;;;;;;;;;;;22.75;100.00;148438.00;5073407;28;19916;-80
2022/07/25 10:47:52;;;;;;;;;;;;;;;22.68;100.00;148420.03;5073946;28;20016;-80
2022/07/25 10:50:21;;;;;;;;;;;;;;;22.95;100.00;148488.06;5073306;28;20351;-80
2022/07/25 10:52:56;;;;;;;;;;;;;;;22.67;100.00;148417.44;5073414;28;19917;-81
2022/07/25 10:55:22;;;;;;;;;;;;;;;22.68;100.00;148420.03;5073019;28;19916;-81
2022/07/25 10:57:58;;;;;;;;;;;;;;;23.15;100.00;148536.84;5073619;28;19917;-81
2022/07/25 11:00:23;;;;;;;;;;;;;;;23.35;100.00;148588.19;5073258;28;19927;-78
2022/07/25 11:02:49;;;;;;;;;;;;;;;23.50;100.00;148625.44;5072973;28;20279;-81
2022/07/25 11:05:14;;;;;;;;;;;;;;;23.10;100.00;148526.63;5072470;28;20308;-78
2022/07/25 11:07:48;;;;;;;;;;;;;;;22.88;100.00;148470.09;5071481;28;19921;-77
2022/07/25 11:10:13;;;;;;;;;;;;;;;22.62;100.00;148405.91;5072159;28;19928;-79
2022/07/25 11:12:39;;;;;;;;;;;;;;;22.80;100.00;148449.56;5072873;28;19913;-78
2022/07/25 11:15:05;;;;;;;;;;;;;;;22.93;100.00;148482.91;5072030;28;20031;-77
2022/07/25 11:17:31;;;;;;;;;;;;;;;22.73;100.00;148432.84;5072386;28;20014;-76
2022/07/25 11:20:00;;;;;;;;;;;;;;;22.66;100.00;148416.19;5072971;28;20010;-79
2022/07/25 11:22:36;;;;;;;;;;;;;;;22.87;100.00;148468.81;5106638;28;20388;-78
2022/07/25 11:25:08;;;;;;;;;;;;;;;22.73;100.00;148434.16;5072209;28;20268;-78
2022/07/25 11:27:34;;;;;;;;;;;;;;;22.80;100.00;148450.84;5072527;28;19916;-79
2022/07/25 11:30:05;;;;;;;;;;;;;;;23.05;100.00;148513.69;5071010;28;20011;-81
2022/07/25 11:32:38;;;;;;;;;;;;;;;23.62;100.00;148654.97;5106636;28;20388;-80
2022/07/25 11:35:04;;;;;;;;;;;;;;;23.96;100.00;148739.78;5072629;28;19912;-79
2022/07/25 11:37:32;;;;;;;;;;;;;;;23.60;100.00;148651.13;5072196;28;20011;-77
2022/07/25 11:39:57;;;;;;;;;;;;;;;23.59;100.00;148647.28;5071900;28;19916;-77
2022/07/25 11:42:25;;;;;;;;;;;;;;;23.47;100.00;148619.00;5071965;28;20058;-78
2022/07/25 11:44:51;;;;;;;;;;;;;;;23.73;100.00;148681.94;5072014;28;20633;-77
2022/07/25 11:47:25;;;;;;;;;;;;;;;23.76;100.00;148689.66;5077710;28;20265;-76
2022/07/25 11:49:50;;;;;;;;;;;;;;;23.95;100.00;148738.47;5072075;28;19956;-78
2022/07/25 11:52:20;;;;;;;;;;;;;;;23.63;100.00;148657.50;5071466;28;20360;-76
2022/07/25 11:54:50;;;;;;;;;;;;;;;23.66;100.00;148666.53;5106068;28;19963;-77
2022/07/25 11:57:22;;;;;;;;;;;;;;;23.75;100.00;148687.06;5070575;28;19966;-79
2022/07/25 11:59:47;;;;;;;;;;;;;;;23.72;100.00;148679.34;5104592;28;19967;-79
2022/07/25 12:02:33;;;;;;;;;;;;;;;24.07;100.00;148768.00;5070467;28;19924;-79
2022/07/25 12:05:00;;;;;;;;;;;;;;;24.17;100.00;148792.41;5070654;28;19920;-78
2022/07/25 12:07:45;;;;;;;;;;;;;;;24.23;100.00;148807.81;5070518;28;19916;-79
2022/07/25 12:10:11;;;;;;;;;;;;;;;24.26;100.00;148815.53;5070463;28;20360;-77
2022/07/25 12:12:40;;;;;;;;;;;;;;;24.54;100.00;148884.88;5070465;28;19967;-76
2022/07/25 12:15:05;;;;;;;;;;;;;;;24.17;100.00;148792.41;5071266;28;19916;-80
2022/07/25 12:17:30;;;;;;;;;;;;;;;24.18;100.00;148794.97;5070590;28;19924;-80
2022/07/25 12:19:56;;;;;;;;;;;;;;;24.46;100.00;148864.34;5070316;28;19942;-78
2022/07/25 12:22:21;;;;;;;;;;;;;;;24.45;100.00;148863.03;5070895;28;19974;-78
2022/07/25 12:24:46;;;;;;;;;;;;;;;24.16;100.00;148791.13;5070251;28;19931;-79
2022/07/25 12:27:11;;;;;;;;;;;;;;;24.33;100.00;148833.53;5070507;28;19928;-79
2022/07/25 12:29:37;;;;;;;;;;;;;;;24.50;100.00;148875.91;5105914;28;19986;-77
2022/07/25 12:32:02;;;;;;;;;;;;;;;24.42;100.00;148854.06;5103503;28;19920;-78